Time;durP1;ratioP1;P1;durP2;ratioP2;P2;SDS_P1;SDS_P2;PMS_P1;PMS_P2;Temp;Humidity;BMP_temperature;BMP_pressure;BME280_temperature;BME280_humidity;BME280_pressure;Samples;Min_cycle;Max_cycle;Signal;HPM_P1;HPM_P2
2022/12/10 00:01:15;;;;;;;1999.90;999.90;;;;;;;4.80;100.00;96302.84;5053428;28;20059;-83
2022/12/10 00:03:41;;;;;;;1999.90;999.90;;;;;;;4.83;100.00;96296.81;5052906;28;20028;-84
2022/12/10 00:06:10;;;;;;;1999.90;999.90;;;;;;;4.90;100.00;96308.06;5056348;28;20048;-81
2022/12/10 00:08:35;;;;;;;1999.90;999.90;;;;;;;4.88;100.00;96294.03;5060924;28;20052;-85
2022/12/10 00:11:06;;;;;;;1999.90;999.90;;;;;;;4.87;100.00;96295.13;5058528;28;20029;-84
2022/12/10 00:13:42;;;;;;;1999.90;999.90;;;;;;;4.84;100.00;96298.44;5055697;28;20036;-84
2022/12/10 00:16:11;;;;;;;1999.90;999.90;;;;;;;4.81;100.00;96307.16;5055065;28;20037;-82
2022/12/10 00:18:37;;;;;;;1999.90;999.90;;;;;;;4.75;100.00;96295.63;5053810;28;20043;-80
2022/12/10 00:21:05;;;;;;;1999.90;999.90;;;;;;;4.76;100.00;96296.44;5052918;28;20040;-80
2022/12/10 00:23:32;;;;;;;1999.90;999.90;;;;;;;4.78;100.00;96305.03;5054371;28;20021;-82
2022/12/10 00:26:05;;;;;;;1999.90;999.90;;;;;;;4.87;100.00;96297.84;5056415;28;20029;-79
2022/12/10 00:28:32;;;;;;;1999.90;999.90;;;;;;;4.87;100.00;96292.41;5050353;28;20028;-77
2022/12/10 00:31:03;;;;;;;1999.90;999.90;;;;;;;4.78;100.00;96286.09;5050109;28;20041;-80
2022/12/10 00:33:28;;;;;;;1999.90;999.90;;;;;;;4.78;100.00;96302.34;5049911;28;20033;-77
2022/12/10 00:35:54;;;;;;;1999.90;999.90;;;;;;;4.78;100.00;96307.75;5051853;28;20036;-76
2022/12/10 00:38:19;;;;;;;1999.90;999.90;;;;;;;4.80;100.00;96309.06;5052332;28;20029;-79
2022/12/10 00:40:44;;;;;;;1999.90;999.90;;;;;;;4.92;100.00;96305.84;5053749;28;20453;-78
2022/12/10 00:43:10;;;;;;;1999.90;999.90;;;;;;;4.97;100.00;96303.06;5053806;28;20528;-77
2022/12/10 00:45:35;;;;;;;1999.90;999.90;;;;;;;4.93;100.00;96304.75;5053571;28;20498;-78
2022/12/10 00:48:00;;;;;;;1999.90;999.90;;;;;;;4.85;100.00;96297.34;5053569;28;20112;-79
2022/12/10 00:50:27;;;;;;;1999.90;999.90;;;;;;;4.85;100.00;96297.34;5053674;28;20035;-78
2022/12/10 00:52:53;;;;;;;1999.90;999.90;;;;;;;4.80;100.00;96300.13;5054181;28;20120;-80
2022/12/10 00:55:19;;;;;;;1999.90;999.90;;;;;;;4.79;100.00;96312.84;5055107;28;20047;-81
2022/12/10 00:57:44;;;;;;;1999.90;999.90;;;;;;;4.50;100.00;96314.22;5036088;28;20486;-79
2022/12/10 01:00:10;;;;;;;1999.90;999.90;;;;;;;4.31;100.00;96312.38;5054411;28;20029;-78
2022/12/10 01:02:37;;;;;;;1999.90;999.90;;;;;;;4.26;100.00;96295.41;5054277;28;20029;-79
2022/12/10 01:05:02;;;;;;;1999.90;999.90;;;;;;;4.35;100.00;96314.47;5052822;28;20509;-81
2022/12/10 01:07:28;;;;;;;1999.90;999.90;;;;;;;4.34;100.00;96327.19;5054314;28;20037;-80
2022/12/10 01:09:53;;;;;;;1999.90;999.90;;;;;;;4.43;100.00;96311.09;5054416;28;20528;-80
2022/12/10 01:12:18;;;;;;;1999.90;999.90;;;;;;;4.46;100.00;96316.72;5054049;28;20474;-78
2022/12/10 01:14:44;;;;;;;1999.90;999.90;;;;;;;4.37;100.00;96326.59;5053998;28;20009;-77
2022/12/10 01:17:09;;;;;;;1999.90;999.90;;;;;;;4.36;100.00;96326.88;5053372;28;20183;-80
2022/12/10 01:19:34;;;;;;;1999.90;999.90;;;;;;;4.29;100.00;96319.97;5053595;28;20031;-79
2022/12/10 01:22:00;;;;;;;1999.90;999.90;;;;;;;4.39;100.00;96329.00;5055370;28;20115;-79
2022/12/10 01:24:27;;;;;;;1999.90;999.90;;;;;;;4.41;100.00;96313.28;5053452;28;20097;-82
2022/12/10 01:26:54;;;;;;;1999.90;999.90;;;;;;;4.53;100.00;96327.16;5059040;28;20029;-83
2022/12/10 01:29:20;;;;;;;1999.90;999.90;;;;;;;4.46;100.00;96316.72;5058017;28;20071;-87
2022/12/10 01:31:47;;;;;;;1999.90;999.90;;;;;;;4.51;100.00;96321.25;5057900;28;20041;-85
2022/12/10 01:34:13;;;;;;;1999.90;999.90;;;;;;;4.51;100.00;96315.84;5057136;28;20028;-80
2022/12/10 01:36:42;;;;;;;1999.90;999.90;;;;;;;4.60;100.00;96338.41;5057314;28;20025;-80
2022/12/10 01:39:10;;;;;;;1999.90;999.90;;;;;;;4.67;100.00;96330.69;5056954;28;20462;-80
2022/12/10 01:41:41;;;;;;;1999.90;999.90;;;;;;;4.67;100.00;96327.97;5053578;28;20021;-82
2022/12/10 01:44:09;;;;;;;1999.90;999.90;;;;;;;4.74;100.00;96323.00;5055606;28;20029;-80
2022/12/10 01:46:37;;;;;;;1999.90;999.90;;;;;;;4.75;100.00;96328.13;5051844;28;20393;-82
2022/12/10 01:49:10;;;;;;;1999.90;999.90;;;;;;;4.75;100.00;96335.44;5053072;28;20481;-78
2022/12/10 01:51:37;;;;;;;1999.90;999.90;;;;;;;4.76;100.00;96331.63;5053488;28;20032;-82
2022/12/10 01:54:08;;;;;;;1999.90;999.90;;;;;;;4.79;100.00;96326.41;5053068;28;20029;-83
2022/12/10 01:56:42;;;;;;;1999.90;999.90;;;;;;;4.80;100.00;96336.13;5054581;28;21227;-78
2022/12/10 01:59:08;;;;;;;1999.90;999.90;;;;;;;4.76;100.00;96332.41;5072541;28;20031;-79
2022/12/10 02:01:54;;;;;;;1999.90;999.90;;;;;;;4.79;100.00;96333.75;5072289;28;20032;-80
2022/12/10 02:04:28;;;;;;;1999.90;999.90;;;;;;;4.91;100.00;96327.84;5072204;28;20074;-78
2022/12/10 02:06:57;;;;;;;1999.90;999.90;;;;;;;4.98;100.00;96331.75;5072357;28;20028;-80
2022/12/10 02:09:45;;;;;;;1999.90;999.90;;;;;;;5.00;100.00;96313.31;5072513;28;20024;-77
2022/12/10 02:12:16;;;;;;;1999.90;999.90;;;;;;;4.93;100.00;96314.78;5072236;28;20032;-78
2022/12/10 02:14:50;;;;;;;1999.90;999.90;;;;;;;4.94;100.00;96319.91;5073127;28;20040;-81
2022/12/10 02:17:21;;;;;;;1999.90;999.90;;;;;;;4.96;100.00;96316.91;5078904;28;20490;-85
2022/12/10 02:19:58;;;;;;;1999.90;999.90;;;;;;;5.04;100.00;96321.63;5079974;28;20025;-80
2022/12/10 02:22:28;;;;;;;1999.90;999.90;;;;;;;5.04;100.00;96319.72;5075736;28;20086;-78
2022/12/10 02:24:55;;;;;;;1999.90;999.90;;;;;;;4.92;100.00;96324.03;5072975;28;20093;-79
2022/12/10 02:27:40;;;;;;;1999.90;999.90;;;;;;;4.87;100.00;96338.47;5072509;28;20032;-77
2022/12/10 02:30:06;;;;;;;1999.90;999.90;;;;;;;4.83;100.00;96345.56;5072118;28;20482;-78
2022/12/10 02:32:35;;;;;;;1999.90;999.90;;;;;;;4.82;100.00;96331.22;5071963;28;20028;-77
2022/12/10 02:35:06;;;;;;;1999.90;999.90;;;;;;;4.75;100.00;96324.59;5071940;28;20087;-78
2022/12/10 02:37:38;;;;;;;1999.90;999.90;;;;;;;4.69;100.00;96325.78;5072067;28;20443;-80
2022/12/10 02:40:09;;;;;;;1999.90;999.90;;;;;;;4.72;100.00;96338.75;5071630;28;20078;-78
2022/12/10 02:42:38;;;;;;;1999.90;999.90;;;;;;;4.69;100.00;96331.22;5071474;28;20064;-81
2022/12/10 02:45:07;;;;;;;1999.90;999.90;;;;;;;4.72;100.00;96344.16;5071501;28;20064;-77
2022/12/10 02:47:33;;;;;;;1999.90;999.90;;;;;;;4.43;100.00;96333.53;5070200;28;20067;-77
2022/12/10 02:49:59;;;;;;;1999.90;999.90;;;;;;;4.59;100.00;96353.84;5069903;28;20033;-80
2022/12/10 02:52:25;;;;;;;1999.90;999.90;;;;;;;4.59;100.00;96343.03;5071756;28;20086;-81
2022/12/10 02:54:51;;;;;;;1999.90;999.90;;;;;;;4.65;100.00;96343.72;5055530;28;20481;-79
2022/12/10 02:57:25;;;;;;;1999.90;999.90;;;;;;;4.61;100.00;96345.41;5049830;28;20537;-77
2022/12/10 03:00:02;;;;;;;1999.90;999.90;;;;;;;4.63;100.00;96343.22;5051052;28;20044;-77
2022/12/10 03:02:53;;;;;;;1999.90;999.90;;;;;;;4.56;100.00;96335.50;5051264;28;20064;-81
2022/12/10 03:05:24;;;;;;;1999.90;999.90;;;;;;;4.61;100.00;96327.28;5051057;28;20037;-80
2022/12/10 03:08:03;;;;;;;1999.90;999.90;;;;;;;4.71;100.00;96323.59;5047396;28;20107;-77
2022/12/10 03:10:36;;;;;;;1999.90;999.90;;;;;;;4.69;100.00;96312.25;5044032;28;20131;-82
2022/12/10 03:13:07;;;;;;;1999.90;999.90;;;;;;;4.75;100.00;96320.00;5050306;28;20064;-79
2022/12/10 03:15:38;;;;;;;1999.90;999.90;;;;;;;4.76;100.00;96321.59;5030965;28;20021;-80
2022/12/10 03:18:04;;;;;;;1999.90;999.90;;;;;;;4.76;100.00;96304.56;5031236;28;20021;-80
2022/12/10 03:20:37;;;;;;;1999.90;999.90;;;;;;;4.74;100.00;96306.75;5030800;28;20039;-78
2022/12/10 03:23:08;;;;;;;1999.90;999.90;;;;;;;4.72;100.00;96290.81;5031625;28;20040;-80
2022/12/10 03:25:35;;;;;;;1999.90;999.90;;;;;;;4.62;100.00;96299.09;5033983;28;20048;-80
2022/12/10 03:28:00;;;;;;;1999.90;999.90;;;;;;;4.62;100.00;96292.88;5050848;28;20032;-78
2022/12/10 03:30:26;;;;;;;1999.90;999.90;;;;;;;4.65;100.00;96305.81;5050792;28;20025;-80
2022/12/10 03:32:53;;;;;;;1999.90;999.90;;;;;;;4.69;100.00;96307.66;5050842;28;20033;-80
2022/12/10 03:35:22;;;;;;;1999.90;999.90;;;;;;;4.78;100.00;96303.16;5050431;28;20112;-82
2022/12/10 03:37:49;;;;;;;1999.90;999.90;;;;;;;4.82;100.00;96295.22;5050390;28;20052;-78
2022/12/10 03:40:17;;;;;;;1999.90;999.90;;;;;;;4.80;100.00;96284.69;5050616;28;20027;-79
2022/12/10 03:42:43;;;;;;;1999.90;999.90;;;;;;;4.78;100.00;96302.34;5050371;28;20489;-78
2022/12/10 03:45:09;;;;;;;1999.90;999.90;;;;;;;4.73;100.00;96299.75;5049255;28;20033;-78
2022/12/10 03:47:34;;;;;;;1999.90;999.90;;;;;;;4.83;100.00;96326.59;5050337;28;20113;-78
2022/12/10 03:50:00;;;;;;;1999.90;999.90;;;;;;;4.70;100.00;96332.78;5049940;28;20036;-77
2022/12/10 03:52:25;;;;;;;1999.90;999.90;;;;;;;4.68;100.00;96337.72;5050121;28;20041;-77
2022/12/10 03:54:50;;;;;;;1999.90;999.90;;;;;;;4.70;100.00;96346.34;5050147;28;20021;-79
2022/12/10 03:57:16;;;;;;;1999.90;999.90;;;;;;;4.67;100.00;96342.31;5050140;28;20466;-78
2022/12/10 03:59:41;;;;;;;1999.90;999.90;;;;;;;4.73;100.00;96354.66;5049901;28;20037;-79
2022/12/10 04:02:06;;;;;;;1999.90;999.90;;;;;;;4.79;100.00;96355.41;5046505;28;20024;-78
2022/12/10 04:04:32;;;;;;;1999.90;999.90;;;;;;;4.92;100.00;96346.47;5030020;28;20056;-78
2022/12/10 04:06:57;;;;;;;1999.90;999.90;;;;;;;4.88;100.00;96331.16;5035136;28;20076;-83
2022/12/10 04:09:23;;;;;;;1999.90;999.90;;;;;;;4.99;100.00;96349.63;5034685;28;20025;-82
2022/12/10 04:11:48;;;;;;;1999.90;999.90;;;;;;;5.04;100.00;96349.53;5034322;28;20026;-79
2022/12/10 04:16:59;;;;;;;1999.90;999.90;;;;;;;4.97;100.00;96341.00;5050027;28;20068;-77
2022/12/10 04:19:24;;;;;;;1999.90;999.90;;;;;;;5.01;100.00;96336.56;5053915;28;20032;-77
2022/12/10 04:27:32;;;;;;;1999.90;999.90;;;;;;;5.02;100.00;96340.88;5063686;28;20024;-77
2022/12/10 04:29:59;;;;;;;1999.90;999.90;;;;;;;5.02;100.00;96340.88;5055380;28;20621;-77
2022/12/10 04:32:26;;;;;;;1999.90;999.90;;;;;;;5.00;100.00;96336.88;5054156;28;20029;-77
2022/12/10 04:34:51;;;;;;;1999.90;999.90;;;;;;;5.03;100.00;96326.25;5053527;28;20068;-78
2022/12/10 04:37:18;;;;;;;1999.90;999.90;;;;;;;5.03;100.00;96322.72;5053620;28;20025;-80
2022/12/10 04:39:44;;;;;;;1999.90;999.90;;;;;;;4.88;100.00;96329.25;5053468;28;20017;-77
2022/12/10 04:42:10;;;;;;;1999.90;999.90;;;;;;;4.93;100.00;96342.69;5053576;28;20040;-78
2022/12/10 04:44:36;;;;;;;1999.90;999.90;;;;;;;4.92;100.00;96334.88;5053313;28;20033;-78
2022/12/10 04:47:03;;;;;;;1999.90;999.90;;;;;;;4.86;100.00;96337.66;5053170;28;20115;-78
2022/12/10 04:49:29;;;;;;;1999.90;999.90;;;;;;;5.04;100.00;96349.53;5053392;28;20545;-79
2022/12/10 04:51:55;;;;;;;1999.90;999.90;;;;;;;4.97;100.00;96342.88;5053138;28;20109;-77
2022/12/10 04:54:21;;;;;;;1999.90;999.90;;;;;;;4.83;100.00;96346.38;5053629;28;20052;-77
2022/12/10 04:56:46;;;;;;;1999.90;999.90;;;;;;;4.90;100.00;96327.03;5053300;28;20068;-76
2022/12/10 04:59:12;;;;;;;1999.90;999.90;;;;;;;5.03;100.00;96317.31;5053206;28;20394;-77
2022/12/10 05:01:38;;;;;;;1999.90;999.90;;;;;;;5.01;100.00;96304.03;5053224;28;20063;-79
2022/12/10 05:04:07;;;;;;;1999.90;999.90;;;;;;;5.08;100.00;96300.94;5053209;28;20116;-78
2022/12/10 05:06:33;;;;;;;1999.90;999.90;;;;;;;5.09;100.00;96305.28;5052987;28;21118;-76
2022/12/10 05:08:58;;;;;;;1999.90;999.90;;;;;;;5.02;100.00;96302.94;5053086;28;20036;-76
2022/12/10 05:11:26;;;;;;;1999.90;999.90;;;;;;;4.98;100.00;96315.47;5053308;28;20119;-77
2022/12/10 05:13:53;;;;;;;1999.90;999.90;;;;;;;5.03;100.00;96320.00;5052633;28;20037;-76
2022/12/10 05:16:22;;;;;;;1999.90;999.90;;;;;;;5.05;100.00;96324.03;5053214;28;20451;-77
2022/12/10 05:18:47;;;;;;;1999.90;999.90;;;;;;;5.16;100.00;96327.34;5051595;28;20086;-75
2022/12/10 05:21:15;;;;;;;1999.90;999.90;;;;;;;5.04;100.00;96311.59;5050800;28;20021;-77
2022/12/10 05:23:44;;;;;;;1999.90;999.90;;;;;;;5.04;100.00;96322.44;5052685;28;20036;-76
2022/12/10 05:26:11;;;;;;;1999.90;999.90;;;;;;;5.04;100.00;96317.03;5052815;28;20029;-76
2022/12/10 05:28:58;;;;;;;1999.90;999.90;;;;;;;5.17;100.00;96321.63;5052655;28;20033;-75
2022/12/10 05:31:27;;;;;;;1999.90;999.90;;;;;;;5.18;100.00;96336.78;5052553;28;20490;-77
2022/12/10 05:33:54;;;;;;;1999.90;999.90;;;;;;;5.16;100.00;96320.03;5052396;28;20482;-78
2022/12/10 05:36:22;;;;;;;1999.90;999.90;;;;;;;5.19;100.00;96318.63;5052722;28;20033;-77
2022/12/10 05:38:48;;;;;;;1999.90;999.90;;;;;;;5.13;100.00;96320.63;5052624;28;20068;-78
2022/12/10 05:41:15;;;;;;;1999.90;999.90;;;;;;;5.18;100.00;96311.59;5053231;28;20033;-77
2022/12/10 05:43:41;;;;;;;1999.90;999.90;;;;;;;5.11;100.00;96309.28;5053138;28;20500;-77
2022/12/10 05:46:14;;;;;;;1999.90;999.90;;;;;;;5.21;100.00;96310.97;5052441;28;20025;-79
2022/12/10 05:48:39;;;;;;;1999.90;999.90;;;;;;;5.24;100.00;96304.97;5053113;28;20056;-77
2022/12/10 05:51:07;;;;;;;1999.90;999.90;;;;;;;5.28;100.00;96301.34;5052391;28;20139;-77
2022/12/10 05:53:32;;;;;;;1999.90;999.90;;;;;;;5.26;100.00;96295.41;5052946;28;20051;-78
2022/12/10 05:56:05;;;;;;;1999.90;999.90;;;;;;;5.17;100.00;96294.53;5052584;28;20462;-78
2022/12/10 05:58:31;;;;;;;1999.90;999.90;;;;;;;5.04;100.00;96284.50;5052117;28;20033;-79
2022/12/10 06:00:57;;;;;;;1999.90;999.90;;;;;;;5.03;100.00;96293.72;5054328;28;20029;-85
2022/12/10 06:03:23;;;;;;;1999.90;999.90;;;;;;;5.08;100.00;96287.41;5062776;28;20024;-77
2022/12/10 06:05:48;;;;;;;1999.90;999.90;;;;;;;4.99;100.00;96281.88;5057292;28;20048;-82
2022/12/10 06:08:13;;;;;;;1999.90;999.90;;;;;;;5.01;100.00;96287.78;5060074;28;20029;-84
2022/12/10 06:10:38;;;;;;;1999.90;999.90;;;;;;;5.11;100.00;96300.34;5067350;28;20425;-82
2022/12/10 06:13:04;;;;;;;1999.90;999.90;;;;;;;5.15;100.00;96304.06;5066731;28;20371;-87
2022/12/10 06:15:30;;;;;;;1999.90;999.90;;;;;;;5.15;100.00;96313.00;5067753;28;20021;-83
2022/12/10 06:17:55;;;;;;;1999.90;999.90;;;;;;;4.99;100.00;96308.97;5065911;28;20035;-85
2022/12/10 06:20:22;;;;;;;1999.90;999.90;;;;;;;5.07;100.00;96319.13;5066915;28;20044;-84
2022/12/10 06:22:47;;;;;;;1999.90;999.90;;;;;;;4.97;100.00;96308.47;5057805;28;20082;-84
2022/12/10 06:25:13;;;;;;;1999.90;999.90;;;;;;;4.96;100.00;96319.59;5059033;28;20017;-84
2022/12/10 06:27:38;;;;;;;1999.90;999.90;;;;;;;4.95;100.00;96321.50;5064052;28;20032;-81
2022/12/10 06:30:04;;;;;;;1999.90;999.90;;;;;;;5.06;100.00;96324.84;5067816;28;20051;-84
2022/12/10 06:32:29;;;;;;;1999.90;999.90;;;;;;;5.07;100.00;96316.41;5066832;28;20029;-86
2022/12/10 06:34:55;;;;;;;1999.90;999.90;;;;;;;5.01;100.00;96312.19;5070826;28;20037;-84
2022/12/10 06:37:20;;;;;;;1999.90;999.90;;;;;;;5.09;100.00;96322.34;5071386;28;20029;-84
2022/12/10 06:39:46;;;;;;;1999.90;999.90;;;;;;;5.18;100.00;96322.44;5062817;28;20041;-82
2022/12/10 06:42:11;;;;;;;1999.90;999.90;;;;;;;5.19;100.00;96326.75;5069887;28;20033;-84
2022/12/10 06:44:36;;;;;;;1999.90;999.90;;;;;;;5.08;100.00;96301.75;5051946;28;20021;-81
2022/12/10 06:47:02;;;;;;;1999.90;999.90;;;;;;;5.18;100.00;96317.81;5065040;28;20033;-82
2022/12/10 06:49:27;;;;;;;1999.90;999.90;;;;;;;5.21;100.00;96316.41;5066144;28;20028;-85
2022/12/10 06:51:52;;;;;;;1999.90;999.90;;;;;;;5.19;100.00;96314.00;5068581;28;20057;-86
2022/12/10 06:54:18;;;;;;;1999.90;999.90;;;;;;;5.17;100.00;96313.50;5068104;28;20025;-84
2022/12/10 06:56:43;;;;;;;1999.90;999.90;;;;;;;5.29;100.00;96338.19;5054858;28;20097;-78
2022/12/10 06:59:11;;;;;;;1999.90;999.90;;;;;;;5.19;100.00;96330.28;5035536;28;20033;-83
2022/12/10 07:01:38;;;;;;;1999.90;999.90;;;;;;;5.21;100.00;96338.91;5048286;28;20088;-85
2022/12/10 07:04:03;;;;;;;1999.90;999.90;;;;;;;5.22;100.00;96339.69;5047439;28;20025;-84
2022/12/10 07:06:31;;;;;;;1999.90;999.90;;;;;;;5.26;100.00;96346.91;5053741;28;20084;-85
2022/12/10 07:08:57;;;;;;;1999.90;999.90;;;;;;;5.23;100.00;96339.38;5050188;28;20056;-85
2022/12/10 07:11:23;;;;;;;1999.90;999.90;;;;;;;5.32;100.00;96348.44;5044675;28;20029;-86
2022/12/10 07:13:49;;;;;;;1999.90;999.90;;;;;;;5.34;100.00;96348.94;5043684;28;20029;-85
2022/12/10 07:16:21;;;;;;;1999.90;999.90;;;;;;;5.38;100.00;96365.41;5040309;28;20037;-86
2022/12/10 07:18:48;;;;;;;1999.90;999.90;;;;;;;5.44;100.00;96352.53;5044384;28;20032;-89
2022/12/10 07:21:15;;;;;;;1999.90;999.90;;;;;;;5.46;100.00;96359.28;5046323;28;20048;-83
2022/12/10 07:23:40;;;;;;;1999.90;999.90;;;;;;;5.34;100.00;96357.06;5031810;28;20057;-75
2022/12/10 07:26:06;;;;;;;1999.90;999.90;;;;;;;5.36;100.00;96362.97;5030447;28;20125;-75
2022/12/10 07:28:32;;;;;;;1999.90;999.90;;;;;;;5.36;100.00;96351.34;5062519;28;20037;-76
2022/12/10 07:31:03;;;;;;;1999.90;999.90;;;;;;;5.33;100.00;96357.34;5030720;28;20029;-77
2022/12/10 07:33:28;;;;;;;1999.90;999.90;;;;;;;5.30;100.00;96344.41;5035858;28;20060;-76
2022/12/10 07:35:54;;;;;;;1999.90;999.90;;;;;;;5.32;100.00;96353.88;5052864;28;20029;-81
2022/12/10 07:38:19;;;;;;;1999.90;999.90;;;;;;;5.31;100.00;96354.97;5055490;28;20021;-86
2022/12/10 07:40:44;;;;;;;1999.90;999.90;;;;;;;5.28;100.00;96361.00;5055455;28;20092;-85
2022/12/10 07:43:10;;;;;;;1999.90;999.90;;;;;;;5.25;100.00;96364.31;5053611;28;20025;-84
2022/12/10 07:45:35;;;;;;;1999.90;999.90;;;;;;;5.41;100.00;96359.38;5051462;28;20033;-83
2022/12/10 07:48:00;;;;;;;1999.90;999.90;;;;;;;5.38;100.00;96374.34;5054631;28;20051;-84
2022/12/10 07:50:26;;;;;;;1999.90;999.90;;;;;;;5.32;100.00;96369.31;5051942;28;20154;-79
2022/12/10 07:52:51;;;;;;;1999.90;999.90;;;;;;;5.38;100.00;96360.78;5050844;28;20107;-81
2022/12/10 07:55:16;;;;;;;1999.90;999.90;;;;;;;5.33;100.00;96366.28;5050738;28;20106;-83
2022/12/10 07:57:41;;;;;;;1999.90;999.90;;;;;;;5.36;100.00;96365.69;5053843;28;20028;-84
2022/12/10 08:00:08;;;;;;;1999.90;999.90;;;;;;;5.57;100.00;96371.53;5055289;28;20154;-76
2022/12/10 08:02:33;;;;;;;1999.90;999.90;;;;;;;6.35;100.00;96378.53;5050253;28;20033;-75
2022/12/10 08:04:59;;;;;;;1999.90;999.90;;;;;;;6.41;100.00;96369.97;5050295;28;20048;-77
2022/12/10 08:07:24;;;;;;;1999.90;999.90;;;;;;;6.45;100.00;96381.78;5050075;28;20486;-76
2022/12/10 08:09:49;;;;;;;1999.90;999.90;;;;;;;6.32;100.00;96381.88;5049833;28;20560;-78
2022/12/10 08:12:15;;;;;;;1999.90;999.90;;;;;;;5.96;100.00;96381.84;5050127;28;20477;-77
2022/12/10 08:14:40;;;;;;;1999.90;999.90;;;;;;;5.83;100.00;96393.47;5049878;28;20025;-75
2022/12/10 08:17:06;;;;;;;1999.90;999.90;;;;;;;5.54;100.00;96391.13;5049817;28;20036;-80
2022/12/10 08:19:31;;;;;;;1999.90;999.90;;;;;;;5.45;100.00;96401.03;5050018;28;20021;-82
2022/12/10 08:21:56;;;;;;;1999.90;999.90;;;;;;;5.33;100.00;96389.88;5049967;28;20776;-76
2022/12/10 08:24:21;;;;;;;1999.90;999.90;;;;;;;5.45;100.00;96397.53;5050395;28;20075;-81
2022/12/10 08:26:47;;;;;;;1999.90;999.90;;;;;;;5.50;100.00;96406.38;5049766;28;20048;-77
2022/12/10 08:29:12;;;;;;;1999.90;999.90;;;;;;;5.43;100.00;96405.16;5050373;28;20456;-76
2022/12/10 08:31:37;;;;;;;1999.90;999.90;;;;;;;5.44;100.00;96402.16;5050091;28;20032;-77
2022/12/10 08:34:04;;;;;;;1999.90;999.90;;;;;;;5.38;100.00;96398.75;5052760;28;20109;-81
2022/12/10 08:36:30;;;;;;;1999.90;999.90;;;;;;;5.44;100.00;96395.94;5058052;28;20059;-76
2022/12/10 08:38:57;;;;;;;1999.90;999.90;;;;;;;5.51;100.00;96407.19;5051168;28;20033;-69
2022/12/10 08:41:23;;;;;;;1999.90;999.90;;;;;;;5.59;100.00;96398.34;5051652;28;20032;-74
2022/12/10 08:43:50;;;;;;;1999.90;999.90;;;;;;;5.49;100.00;96403.94;5051450;28;20492;-74
2022/12/10 08:46:16;;;;;;;1999.90;999.90;;;;;;;5.55;100.00;96403.56;5049621;28;20025;-77
2022/12/10 08:48:42;;;;;;;1999.90;999.90;;;;;;;5.58;100.00;96413.00;5049843;28;20033;-74
2022/12/10 08:51:10;;;;;;;1999.90;999.90;;;;;;;5.61;100.00;96412.38;5049677;28;20405;-75
2022/12/10 08:53:35;;;;;;;1999.90;999.90;;;;;;;5.61;100.00;96402.34;5049842;28;20393;-75
2022/12/10 08:56:01;;;;;;;1999.90;999.90;;;;;;;5.59;100.00;96415.41;5055076;28;20032;-79
2022/12/10 08:58:27;;;;;;;1999.90;999.90;;;;;;;5.53;100.00;96404.97;5053827;28;20120;-79
2022/12/10 09:00:52;;;;;;;1999.90;999.90;;;;;;;5.55;100.00;96411.69;5053642;28;20176;-77
2022/12/10 09:03:18;;;;;;;1999.90;999.90;;;;;;;5.44;100.00;96402.16;5053180;28;20021;-77
2022/12/10 09:05:43;;;;;;;1999.90;999.90;;;;;;;5.52;100.00;96422.31;5052707;28;20048;-76
2022/12/10 09:08:08;;;;;;;1999.90;999.90;;;;;;;5.47;100.00;96425.16;5051453;28;20021;-76
2022/12/10 09:10:36;;;;;;;1999.90;999.90;;;;;;;5.46;100.00;96423.53;5053327;28;20394;-75
2022/12/10 09:13:02;;;;;;;1999.90;999.90;;;;;;;5.40;100.00;96420.94;5053613;28;20024;-76
2022/12/10 09:15:27;;;;;;;1999.90;999.90;;;;;;;5.47;100.00;96419.72;5053292;28;20033;-76
2022/12/10 09:17:52;;;;;;;1999.90;999.90;;;;;;;5.49;100.00;96425.63;5052072;28;20393;-77
2022/12/10 09:20:18;;;;;;;1999.90;999.90;;;;;;;5.38;100.00;96406.88;5054720;28;20564;-84
2022/12/10 09:22:43;;;;;;;1999.90;999.90;;;;;;;5.49;100.00;96431.06;5055295;28;20013;-75
2022/12/10 09:25:14;;;;;;;1999.90;999.90;;;;;;;5.51;100.00;96429.69;5052978;28;20421;-76
2022/12/10 09:27:40;;;;;;;1999.90;999.90;;;;;;;5.43;100.00;96424.13;5053483;28;20060;-76
2022/12/10 09:30:06;;;;;;;1999.90;999.90;;;;;;;5.46;100.00;96429.75;5052652;28;20444;-74
2022/12/10 09:32:34;;;;;;;1999.90;999.90;;;;;;;5.36;100.00;96417.19;5052874;28;20060;-77
2022/12/10 09:35:00;;;;;;;1999.90;999.90;;;;;;;5.36;100.00;96419.09;5055240;28;20103;-77
2022/12/10 09:37:25;;;;;;;1999.90;999.90;;;;;;;5.35;100.00;96409.38;5066391;28;20120;-75
2022/12/10 09:39:51;;;;;;;1999.90;999.90;;;;;;;5.27;100.00;96415.47;5057984;28;20053;-76
2022/12/10 09:42:30;;;;;;;1999.90;999.90;;;;;;;5.35;100.00;96409.38;5068839;28;20063;-74
2022/12/10 09:45:02;;;;;;;1999.90;999.90;;;;;;;5.36;100.00;96406.34;5057957;28;20473;-76
2022/12/10 09:47:46;;;;;;;1999.90;999.90;;;;;;;5.29;100.00;96391.59;5072422;28;20130;-77
2022/12/10 09:50:21;;;;;;;1999.90;999.90;;;;;;;5.38;100.00;96400.66;5054068;28;20508;-76
2022/12/10 09:52:49;;;;;;;1999.90;999.90;;;;;;;5.33;100.00;96387.97;5052126;28;20478;-76
2022/12/10 09:55:22;;;;;;;1999.90;999.90;;;;;;;5.31;100.00;96392.91;5050700;28;20508;-78
2022/12/10 09:57:50;;;;;;;1999.90;999.90;;;;;;;5.35;100.00;96399.34;5051482;28;20035;-81
2022/12/10 10:00:20;;;;;;;1999.90;999.90;;;;;;;5.35;100.00;96393.94;5058995;28;20028;-85
2022/12/10 10:02:46;;;;;;;1999.90;999.90;;;;;;;5.21;100.00;96379.53;5065683;28;20033;-83
2022/12/10 10:05:21;;;;;;;1999.90;999.90;;;;;;;5.28;100.00;96385.38;5064892;28;20629;-81
2022/12/10 10:07:52;;;;;;;1999.90;999.90;;;;;;;5.22;100.00;96388.47;5059375;28;20812;-86
2022/12/10 10:10:28;;;;;;;1999.90;999.90;;;;;;;5.24;100.00;96381.66;5069285;28;20036;-80
2022/12/10 10:12:58;;;;;;;1999.90;999.90;;;;;;;5.16;100.00;96368.81;5059560;28;20389;-83
2022/12/10 10:15:29;;;;;;;1999.90;999.90;;;;;;;5.24;100.00;96376.22;5062218;28;20041;-80
2022/12/10 10:17:58;;;;;;;1999.90;999.90;;;;;;;5.18;100.00;96377.44;5058624;28;20025;-82
2022/12/10 10:20:23;;;;;;;1999.90;999.90;;;;;;;5.19;100.00;96373.63;5057566;28;20555;-77
2022/12/10 10:22:49;;;;;;;1999.90;999.90;;;;;;;5.14;100.00;96359.34;5060422;28;20017;-84
2022/12/10 10:25:17;;;;;;;1999.90;999.90;;;;;;;5.19;100.00;96354.66;5061003;28;20051;-78
2022/12/10 10:27:43;;;;;;;1999.90;999.90;;;;;;;5.20;100.00;96367.09;5073658;28;20107;-81
2022/12/10 10:30:16;;;;;;;1999.90;999.90;;;;;;;5.18;100.00;96361.19;5066906;28;20454;-82
2022/12/10 10:32:41;;;;;;;1999.90;999.90;;;;;;;5.15;100.00;96366.38;5063963;28;20036;-83
2022/12/10 10:35:18;;;;;;;1999.90;999.90;;;;;;;5.14;100.00;96354.75;5063488;28;20033;-83
2022/12/10 10:37:44;;;;;;;1999.90;999.90;;;;;;;5.16;100.00;96351.75;5076050;28;20612;-86
2022/12/10 10:40:45;;;;;;;1999.90;999.90;;;;;;;5.19;100.00;96357.38;5076094;28;20049;-84
2022/12/10 10:43:20;;;;;;;1999.90;999.90;;;;;;;5.10;100.00;96331.28;5063026;28;20029;-84
2022/12/10 10:45:56;;;;;;;1999.90;999.90;;;;;;;5.11;100.00;96333.66;5065918;28;20481;-83
2022/12/10 10:48:24;;;;;;;1999.90;999.90;;;;;;;5.18;100.00;96355.75;5070196;28;20037;-84
2022/12/10 10:51:15;;;;;;;1999.90;999.90;;;;;;;5.09;100.00;96344.00;5080024;28;20038;-86
2022/12/10 10:53:46;;;;;;;1999.90;999.90;;;;;;;5.18;100.00;96352.25;5059337;28;20478;-84
2022/12/10 10:56:21;;;;;;;1999.90;999.90;;;;;;;5.14;100.00;96362.06;5061299;28;20029;-84
2022/12/10 10:59:05;;;;;;;1999.90;999.90;;;;;;;5.25;100.00;96352.66;5058032;28;20044;-86
2022/12/10 11:01:53;;;;;;;1999.90;999.90;;;;;;;5.15;100.00;96345.50;5064897;28;20025;-87
2022/12/10 11:04:35;;;;;;;1999.90;999.90;;;;;;;5.15;100.00;96356.34;5058931;28;20116;-81
2022/12/10 11:07:03;;;;;;;1999.90;999.90;;;;;;;5.22;100.00;96351.34;5072142;28;20036;-77